Flevoborg — PBMH — position and weather

sailwx.info

Track history (hours):
 
Tides and Currents Weather Stations Pressure Air Temp Water Temp Dewpoint Dewpoint Depression Visibility Wind Speed Wind Dir Waves Ship Positions

Flevoborg

Last reported at 2018-Apr-19 14:59 UTC. Time now 2018-Apr-20 12:44 UTC.
Position N 60°27' E 019°01'.

Length 155 m; draft 8.9 m.

Type: Ship. MMSI: 245226000.

Date/timePositionNaut miles runAvg speedWind from/ knotsBaromVisibWave heightAir tempDewpointWater temp
2018-Apr-19 14:59N 60°27' E 019°01'510.7
2018-Apr-19 14:30N 60°22' E 019°01'510.5
2018-Apr-19 14:00N 60°17' E 019°02'610.3
2018-Apr-19 13:27N 60°11' E 019°05'510.3
2018-Apr-19 12:59N 60°08' E 019°12'510.5
2018-Apr-19 12:29N 60°04' E 019°18'510.4
2018-Apr-19 12:00N 59°60' E 019°25'510.2
2018-Apr-19 11:29N 59°55' E 019°31'510.3
2018-Apr-19 11:01N 59°52' E 019°37'239 9.4
2018-Apr-18 09:44N 56°10' E 016°52'610.0
2018-Apr-18 09:11N 56°05' E 016°47'210.2
2018-Apr-18 09:00N 56°04' E 016°45'510.3
2018-Apr-18 08:30N 56°01' E 016°37'510.5
2018-Apr-18 08:00N 55°58' E 016°29'510.4
2018-Apr-18 07:30N 55°56' E 016°21'510.2
2018-Apr-18 07:00N 55°53' E 016°13'510.2
2018-Apr-18 06:30N 55°51' E 016°05'510.1
2018-Apr-18 06:01N 55°48' E 015°57'510.1
2018-Apr-18 05:31N 55°46' E 015°50'510.1
2018-Apr-18 05:00N 55°43' E 015°42'510.2
2018-Apr-18 04:30N 55°41' E 015°34'510.0
2018-Apr-18 04:00N 55°38' E 015°26'510.1
2018-Apr-18 03:31N 55°36' E 015°18'510.0
2018-Apr-18 03:00N 55°33' E 015°11'5 9.9
2018-Apr-18 02:30N 55°31' E 015°03'5 9.8
2018-Apr-18 02:00N 55°28' E 014°56'5 9.9
2018-Apr-18 01:30N 55°26' E 014°48'5 9.8
2018-Apr-18 01:00N 55°23' E 014°40'510.0
2018-Apr-18 00:30N 55°20' E 014°35'510.1
2018-Apr-18 00:00N 55°16' E 014°29'510.2
2018-Apr-17 23:30N 55°12' E 014°24'510.3
2018-Apr-17 23:00N 55°08' E 014°18'510.4
2018-Apr-17 22:30N 55°04' E 014°13'5 9.9
2018-Apr-17 22:00N 55°00' E 014°06'610.3
2018-Apr-17 21:25N 54°59' E 013°56'510.7
2018-Apr-17 20:57N 54°58' E 013°47'3810.3
2018-Apr-17 17:15N 54°45' E 012°45'210.1
2018-Apr-17 17:00N 54°44' E 012°41'5 9.9
2018-Apr-17 16:30N 54°41' E 012°34'17 9.8
2018-Apr-17 14:45N 54°28' E 012°14'310.3
2018-Apr-17 14:30N 54°26' E 012°12'5 9.4
2018-Apr-17 14:00N 54°25' E 012°04'510.2
2018-Apr-17 13:30N 54°25' E 011°55'510.0
2018-Apr-17 13:00N 54°25' E 011°47'611.4
2018-Apr-17 12:30N 54°27' E 011°38'611.7
2018-Apr-17 12:00N 54°30' E 011°29'611.6
2018-Apr-17 11:30N 54°32' E 011°20'611.3
2018-Apr-17 11:00N 54°35' E 011°11'611.3
2018-Apr-17 10:30N 54°38' E 011°03'611.2
2018-Apr-17 10:00N 54°41' E 010°54'510.0
2018-Apr-17 09:30N 54°46' E 010°52'611.0
2018-Apr-17 09:00N 54°51' E 010°52'510.9
2018-Apr-17 08:30N 54°56' E 010°56'510.8
2018-Apr-17 08:00N 55°01' E 011°01'611.3
2018-Apr-17 07:30N 55°06' E 011°02'610.9
2018-Apr-17 06:57N 55°12' E 011°05'510.7
2018-Apr-17 06:29N 55°17' E 011°03'99 9.0
2018-Apr-16 19:34N 56°52' E 011°46'110.1
2018-Apr-16 19:30N 56°53' E 011°46'610.1
2018-Apr-16 18:54N 56°59' E 011°43'510.2
2018-Apr-16 18:26N 57°03' E 011°40'4 9.9
2018-Apr-16 18:00N 57°07' E 011°37'5 9.9
2018-Apr-16 17:30N 57°12' E 011°34'5 9.8
2018-Apr-16 17:00N 57°17' E 011°31'5 9.8
2018-Apr-16 16:30N 57°21' E 011°28'5 9.8
2018-Apr-16 16:00N 57°26' E 011°25'5 9.5
2018-Apr-16 15:29N 57°30' E 011°20'5 9.7
2018-Apr-16 15:00N 57°33' E 011°13'5 9.5
2018-Apr-16 14:30N 57°36' E 011°07'5 9.6
2018-Apr-16 14:00N 57°40' E 011°00'5 9.9
2018-Apr-16 13:30N 57°43' E 010°54'510.1
2018-Apr-16 13:00N 57°46' E 010°46'510.0
2018-Apr-16 12:30N 57°47' E 010°37'611.0
2018-Apr-16 12:00N 57°47' E 010°27'9510.0
2018-Apr-16 02:30N 57°41' E 007°29'5 9.2
2018-Apr-16 02:00N 57°42' E 007°21'4 8.6
2018-Apr-16 01:30N 57°42' E 007°13'31810.1
2018-Apr-14 17:55N 58°42' W 002°39'410.3
2018-Apr-14 17:30N 58°42' W 002°47'510.3
2018-Apr-14 17:00N 58°43' W 002°57'5 9.4
2018-Apr-14 16:30N 58°43' W 003°06'4 6.5
2018-Apr-14 15:56N 58°43' W 003°13'3 7.0
2018-Apr-14 15:30N 58°43' W 003°19'4 6.9
2018-Apr-14 14:58N 58°43' W 003°26'312 9.3
2018-Apr-13 05:38N 54°48' W 009°38'2 9.7
2018-Apr-13 05:28N 54°46' W 009°40'6 9.7
2018-Apr-13 04:53N 54°41' W 009°45'4 9.6
2018-Apr-13 04:26N 54°38' W 009°49'5 9.6
2018-Apr-13 03:54N 54°33' W 009°54'5 9.6
2018-Apr-13 03:23N 54°29' W 009°58'5 9.8
2018-Apr-13 02:52N 54°25' W 010°03'4 9.7
2018-Apr-13 02:28N 54°22' W 010°07'4 9.7
2018-Apr-13 02:00N 54°18' W 010°11'5 9.7
2018-Apr-13 01:30N 54°14' W 010°15'5 9.9
2018-Apr-13 00:59N 54°09' W 010°20'510.0
2018-Apr-13 00:30N 54°05' W 010°24'5 9.7
2018-Apr-13 00:00N 54°01' W 010°25'5 9.9
2018-Apr-12 23:30N 53°56' W 010°25'5 9.8
2018-Apr-12 23:00N 53°51' W 010°25'5 9.8
2018-Apr-12 22:28N 53°46' W 010°25'5 9.7
2018-Apr-12 21:58N 53°41' W 010°24'5 9.7
2018-Apr-12 21:30N 53°36' W 010°24'5 9.6
2018-Apr-12 21:00N 53°31' W 010°22'5 9.8
2018-Apr-12 20:31N 53°27' W 010°20'5 9.9
2018-Apr-12 20:01N 53°22' W 010°19'5 9.8
2018-Apr-12 19:30N 53°17' W 010°17'5 9.6
2018-Apr-12 19:01N 53°12' W 010°15'6 9.9
2018-Apr-12 18:24N 53°07' W 010°13'410.0
2018-Apr-12 17:58N 53°02' W 010°11'1710.0
2018-Apr-12 16:15N 52°46' W 010°04'310.0
2018-Apr-12 15:58N 52°43' W 010°03'510.0
2018-Apr-12 15:28N 52°38' W 010°02'510.3
2018-Apr-12 14:59N 52°33' W 009°60'4 8.5
2018-Apr-12 14:29N 52°31' W 009°53'5 9.4
2018-Apr-12 14:00N 52°32' W 009°46'  
Track history (hours):
 
Tides and Currents Weather Stations Pressure Air Temp Water Temp Dewpoint Dewpoint Depression Visibility Wind Speed Wind Dir Waves Ship Positions

Flevoborg

Last reported at 2018-Apr-19 14:59 UTC. Time now 2018-Apr-20 12:44 UTC.
Position N 60°27' E 019°01'.

Length 155 m; draft 8.9 m.

Type: Ship. MMSI: 245226000.

Date/timePositionNaut miles runAvg speedWind from/ knotsBaromVisibWave heightAir tempDewpointWater temp
2018-Apr-19 14:59N 60°27' E 019°01'510.7
2018-Apr-19 14:30N 60°22' E 019°01'510.5
2018-Apr-19 14:00N 60°17' E 019°02'610.3
2018-Apr-19 13:27N 60°11' E 019°05'510.3
2018-Apr-19 12:59N 60°08' E 019°12'510.5
2018-Apr-19 12:29N 60°04' E 019°18'510.4
2018-Apr-19 12:00N 59°60' E 019°25'510.2
2018-Apr-19 11:29N 59°55' E 019°31'510.3
2018-Apr-19 11:01N 59°52' E 019°37'239 9.4
2018-Apr-18 09:44N 56°10' E 016°52'610.0
2018-Apr-18 09:11N 56°05' E 016°47'210.2
2018-Apr-18 09:00N 56°04' E 016°45'510.3
2018-Apr-18 08:30N 56°01' E 016°37'510.5
2018-Apr-18 08:00N 55°58' E 016°29'510.4
2018-Apr-18 07:30N 55°56' E 016°21'510.2
2018-Apr-18 07:00N 55°53' E 016°13'510.2
2018-Apr-18 06:30N 55°51' E 016°05'510.1
2018-Apr-18 06:01N 55°48' E 015°57'510.1
2018-Apr-18 05:31N 55°46' E 015°50'510.1
2018-Apr-18 05:00N 55°43' E 015°42'510.2
2018-Apr-18 04:30N 55°41' E 015°34'510.0
2018-Apr-18 04:00N 55°38' E 015°26'510.1
2018-Apr-18 03:31N 55°36' E 015°18'510.0
2018-Apr-18 03:00N 55°33' E 015°11'5 9.9
2018-Apr-18 02:30N 55°31' E 015°03'5 9.8
2018-Apr-18 02:00N 55°28' E 014°56'5 9.9
2018-Apr-18 01:30N 55°26' E 014°48'5 9.8
2018-Apr-18 01:00N 55°23' E 014°40'510.0
2018-Apr-18 00:30N 55°20' E 014°35'510.1
2018-Apr-18 00:00N 55°16' E 014°29'510.2
2018-Apr-17 23:30N 55°12' E 014°24'510.3
2018-Apr-17 23:00N 55°08' E 014°18'510.4
2018-Apr-17 22:30N 55°04' E 014°13'5 9.9
2018-Apr-17 22:00N 55°00' E 014°06'610.3
2018-Apr-17 21:25N 54°59' E 013°56'510.7
2018-Apr-17 20:57N 54°58' E 013°47'3810.3
2018-Apr-17 17:15N 54°45' E 012°45'210.1
2018-Apr-17 17:00N 54°44' E 012°41'5 9.9
2018-Apr-17 16:30N 54°41' E 012°34'17 9.8
2018-Apr-17 14:45N 54°28' E 012°14'310.3
2018-Apr-17 14:30N 54°26' E 012°12'5 9.4
2018-Apr-17 14:00N 54°25' E 012°04'510.2
2018-Apr-17 13:30N 54°25' E 011°55'510.0
2018-Apr-17 13:00N 54°25' E 011°47'611.4
2018-Apr-17 12:30N 54°27' E 011°38'611.7
2018-Apr-17 12:00N 54°30' E 011°29'611.6
2018-Apr-17 11:30N 54°32' E 011°20'611.3
2018-Apr-17 11:00N 54°35' E 011°11'611.3
2018-Apr-17 10:30N 54°38' E 011°03'611.2
2018-Apr-17 10:00N 54°41' E 010°54'510.0
2018-Apr-17 09:30N 54°46' E 010°52'611.0
2018-Apr-17 09:00N 54°51' E 010°52'510.9
2018-Apr-17 08:30N 54°56' E 010°56'510.8
2018-Apr-17 08:00N 55°01' E 011°01'611.3
2018-Apr-17 07:30N 55°06' E 011°02'610.9
2018-Apr-17 06:57N 55°12' E 011°05'510.7
2018-Apr-17 06:29N 55°17' E 011°03'99 9.0
2018-Apr-16 19:34N 56°52' E 011°46'110.1
2018-Apr-16 19:30N 56°53' E 011°46'610.1
2018-Apr-16 18:54N 56°59' E 011°43'510.2
2018-Apr-16 18:26N 57°03' E 011°40'4 9.9
2018-Apr-16 18:00N 57°07' E 011°37'5 9.9
2018-Apr-16 17:30N 57°12' E 011°34'5 9.8
2018-Apr-16 17:00N 57°17' E 011°31'5 9.8
2018-Apr-16 16:30N 57°21' E 011°28'5 9.8
2018-Apr-16 16:00N 57°26' E 011°25'5 9.5
2018-Apr-16 15:29N 57°30' E 011°20'5 9.7
2018-Apr-16 15:00N 57°33' E 011°13'5 9.5
2018-Apr-16 14:30N 57°36' E 011°07'5 9.6
2018-Apr-16 14:00N 57°40' E 011°00'5 9.9
2018-Apr-16 13:30N 57°43' E 010°54'510.1
2018-Apr-16 13:00N 57°46' E 010°46'510.0
2018-Apr-16 12:30N 57°47' E 010°37'611.0
2018-Apr-16 12:00N 57°47' E 010°27'9510.0
2018-Apr-16 02:30N 57°41' E 007°29'5 9.2
2018-Apr-16 02:00N 57°42' E 007°21'4 8.6
2018-Apr-16 01:30N 57°42' E 007°13'31810.1
2018-Apr-14 17:55N 58°42' W 002°39'410.3
2018-Apr-14 17:30N 58°42' W 002°47'510.3
2018-Apr-14 17:00N 58°43' W 002°57'5 9.4
2018-Apr-14 16:30N 58°43' W 003°06'4 6.5
2018-Apr-14 15:56N 58°43' W 003°13'3 7.0
2018-Apr-14 15:30N 58°43' W 003°19'4 6.9
2018-Apr-14 14:58N 58°43' W 003°26'312 9.3
2018-Apr-13 05:38N 54°48' W 009°38'2 9.7
2018-Apr-13 05:28N 54°46' W 009°40'6 9.7
2018-Apr-13 04:53N 54°41' W 009°45'4 9.6
2018-Apr-13 04:26N 54°38' W 009°49'5 9.6
2018-Apr-13 03:54N 54°33' W 009°54'5 9.6
2018-Apr-13 03:23N 54°29' W 009°58'5 9.8
2018-Apr-13 02:52N 54°25' W 010°03'4 9.7
2018-Apr-13 02:28N 54°22' W 010°07'4 9.7
2018-Apr-13 02:00N 54°18' W 010°11'5 9.7
2018-Apr-13 01:30N 54°14' W 010°15'5 9.9
2018-Apr-13 00:59N 54°09' W 010°20'510.0
2018-Apr-13 00:30N 54°05' W 010°24'5 9.7
2018-Apr-13 00:00N 54°01' W 010°25'5 9.9
2018-Apr-12 23:30N 53°56' W 010°25'5 9.8
2018-Apr-12 23:00N 53°51' W 010°25'5 9.8
2018-Apr-12 22:28N 53°46' W 010°25'5 9.7
2018-Apr-12 21:58N 53°41' W 010°24'5 9.7
2018-Apr-12 21:30N 53°36' W 010°24'5 9.6
2018-Apr-12 21:00N 53°31' W 010°22'5 9.8
2018-Apr-12 20:31N 53°27' W 010°20'5 9.9
2018-Apr-12 20:01N 53°22' W 010°19'5 9.8
2018-Apr-12 19:30N 53°17' W 010°17'5 9.6
2018-Apr-12 19:01N 53°12' W 010°15'6 9.9
2018-Apr-12 18:24N 53°07' W 010°13'410.0
2018-Apr-12 17:58N 53°02' W 010°11'1710.0
2018-Apr-12 16:15N 52°46' W 010°04'310.0
2018-Apr-12 15:58N 52°43' W 010°03'510.0
2018-Apr-12 15:28N 52°38' W 010°02'510.3
2018-Apr-12 14:59N 52°33' W 009°60'4 8.5
2018-Apr-12 14:29N 52°31' W 009°53'5 9.4
2018-Apr-12 14:00N 52°32' W 009°46'  

Dump ship's entire track history